sensor_id;sensor_type;location;lat;lon;timestamp;P1;durP1;ratioP1;P2;durP2;ratioP2
28551;SDS011;15752;49.560;8.708;2023-02-12T00:01:37;31.73;;;21.00;;
28551;SDS011;15752;49.560;8.708;2023-02-12T00:04:05;34.97;;;21.97;;
28551;SDS011;15752;49.560;8.708;2023-02-12T00:06:34;32.30;;;21.03;;
28551;SDS011;15752;49.560;8.708;2023-02-12T00:09:02;33.50;;;22.23;;
28551;SDS011;15752;49.560;8.708;2023-02-12T00:11:30;35.97;;;22.23;;
28551;SDS011;15752;49.560;8.708;2023-02-12T00:14:00;35.47;;;22.63;;
28551;SDS011;15752;49.560;8.708;2023-02-12T00:16:31;27.40;;;20.80;;
28551;SDS011;15752;49.560;8.708;2023-02-12T00:19:00;32.13;;;19.37;;
28551;SDS011;15752;49.560;8.708;2023-02-12T00:21:28;34.03;;;20.87;;
28551;SDS011;15752;49.560;8.708;2023-02-12T00:23:56;36.93;;;21.13;;
28551;SDS011;15752;49.560;8.708;2023-02-12T00:26:25;31.73;;;21.10;;
28551;SDS011;15752;49.560;8.708;2023-02-12T00:28:53;30.00;;;19.50;;
28551;SDS011;15752;49.560;8.708;2023-02-12T00:31:23;26.80;;;17.87;;
28551;SDS011;15752;49.560;8.708;2023-02-12T00:33:56;28.33;;;19.07;;
28551;SDS011;15752;49.560;8.708;2023-02-12T00:36:27;32.17;;;21.23;;
28551;SDS011;15752;49.560;8.708;2023-02-12T00:38:57;33.10;;;20.83;;
28551;SDS011;15752;49.560;8.708;2023-02-12T00:41:26;30.47;;;20.57;;
28551;SDS011;15752;49.560;8.708;2023-02-12T00:43:55;31.30;;;19.77;;
28551;SDS011;15752;49.560;8.708;2023-02-12T00:46:23;31.80;;;19.87;;
28551;SDS011;15752;49.560;8.708;2023-02-12T00:48:52;26.37;;;18.83;;
28551;SDS011;15752;49.560;8.708;2023-02-12T00:51:22;29.87;;;20.43;;
28551;SDS011;15752;49.560;8.708;2023-02-12T00:53:50;31.93;;;20.90;;
28551;SDS011;15752;49.560;8.708;2023-02-12T00:56:19;29.50;;;19.83;;
28551;SDS011;15752;49.560;8.708;2023-02-12T00:58:47;30.33;;;20.10;;
28551;SDS011;15752;49.560;8.708;2023-02-12T01:01:16;32.30;;;20.07;;
28551;SDS011;15752;49.560;8.708;2023-02-12T01:03:45;25.77;;;17.77;;
28551;SDS011;15752;49.560;8.708;2023-02-12T01:06:13;27.97;;;18.23;;
28551;SDS011;15752;49.560;8.708;2023-02-12T01:08:43;25.00;;;16.90;;
28551;SDS011;15752;49.560;8.708;2023-02-12T01:11:11;27.70;;;18.03;;
28551;SDS011;15752;49.560;8.708;2023-02-12T01:13:40;37.20;;;21.67;;
28551;SDS011;15752;49.560;8.708;2023-02-12T01:16:11;35.20;;;21.60;;
28551;SDS011;15752;49.560;8.708;2023-02-12T01:18:43;29.17;;;19.47;;
28551;SDS011;15752;49.560;8.708;2023-02-12T01:21:13;32.00;;;19.83;;
28551;SDS011;15752;49.560;8.708;2023-02-12T01:23:46;32.77;;;20.20;;
28551;SDS011;15752;49.560;8.708;2023-02-12T01:26:15;30.40;;;20.00;;
28551;SDS011;15752;49.560;8.708;2023-02-12T01:28:47;30.53;;;19.67;;
28551;SDS011;15752;49.560;8.708;2023-02-12T01:31:18;31.57;;;20.33;;
28551;SDS011;15752;49.560;8.708;2023-02-12T01:33:49;29.10;;;19.13;;
28551;SDS011;15752;49.560;8.708;2023-02-12T01:36:19;29.10;;;19.97;;
28551;SDS011;15752;49.560;8.708;2023-02-12T01:38:49;31.30;;;21.17;;
28551;SDS011;15752;49.560;8.708;2023-02-12T01:41:18;31.63;;;20.77;;
28551;SDS011;15752;49.560;8.708;2023-02-12T01:44:06;32.13;;;20.73;;
28551;SDS011;15752;49.560;8.708;2023-02-12T01:46:37;32.37;;;21.07;;
28551;SDS011;15752;49.560;8.708;2023-02-12T01:49:07;30.90;;;19.37;;
28551;SDS011;15752;49.560;8.708;2023-02-12T01:51:40;30.97;;;20.37;;
28551;SDS011;15752;49.560;8.708;2023-02-12T01:54:12;32.70;;;20.60;;
28551;SDS011;15752;49.560;8.708;2023-02-12T01:56:43;30.33;;;21.10;;
28551;SDS011;15752;49.560;8.708;2023-02-12T01:59:12;27.17;;;19.20;;
28551;SDS011;15752;49.560;8.708;2023-02-12T02:01:40;32.90;;;20.70;;
28551;SDS011;15752;49.560;8.708;2023-02-12T02:04:11;32.87;;;21.47;;
28551;SDS011;15752;49.560;8.708;2023-02-12T02:06:45;29.53;;;20.20;;
28551;SDS011;15752;49.560;8.708;2023-02-12T02:09:19;32.17;;;20.10;;
28551;SDS011;15752;49.560;8.708;2023-02-12T02:11:47;30.17;;;19.73;;
28551;SDS011;15752;49.560;8.708;2023-02-12T02:14:33;31.00;;;19.77;;
28551;SDS011;15752;49.560;8.708;2023-02-12T02:23:24;26.70;;;17.57;;
28551;SDS011;15752;49.560;8.708;2023-02-12T02:26:25;26.30;;;16.83;;
28551;SDS011;15752;49.560;8.708;2023-02-12T02:29:26;26.00;;;17.27;;
28551;SDS011;15752;49.560;8.708;2023-02-12T02:32:12;27.40;;;17.73;;
28551;SDS011;15752;49.560;8.708;2023-02-12T02:34:46;25.07;;;17.33;;
28551;SDS011;15752;49.560;8.708;2023-02-12T02:37:24;27.13;;;17.93;;
28551;SDS011;15752;49.560;8.708;2023-02-12T02:39:56;26.90;;;18.13;;
28551;SDS011;15752;49.560;8.708;2023-02-12T02:42:32;29.20;;;18.87;;
28551;SDS011;15752;49.560;8.708;2023-02-12T02:45:07;27.30;;;18.23;;
28551;SDS011;15752;49.560;8.708;2023-02-12T02:47:42;29.80;;;19.83;;
28551;SDS011;15752;49.560;8.708;2023-02-12T02:50:17;32.03;;;19.47;;
28551;SDS011;15752;49.560;8.708;2023-02-12T02:52:51;30.27;;;19.73;;
28551;SDS011;15752;49.560;8.708;2023-02-12T02:55:24;32.13;;;20.90;;
28551;SDS011;15752;49.560;8.708;2023-02-12T02:57:59;28.40;;;19.77;;
28551;SDS011;15752;49.560;8.708;2023-02-12T03:00:34;30.37;;;20.27;;
28551;SDS011;15752;49.560;8.708;2023-02-12T03:03:08;30.67;;;20.27;;
28551;SDS011;15752;49.560;8.708;2023-02-12T03:05:45;28.87;;;19.87;;
28551;SDS011;15752;49.560;8.708;2023-02-12T03:08:17;30.23;;;19.97;;
28551;SDS011;15752;49.560;8.708;2023-02-12T03:10:51;29.23;;;21.13;;
28551;SDS011;15752;49.560;8.708;2023-02-12T03:13:24;26.27;;;18.33;;
28551;SDS011;15752;49.560;8.708;2023-02-12T03:15:59;30.17;;;19.17;;
28551;SDS011;15752;49.560;8.708;2023-02-12T03:18:36;29.23;;;19.10;;
28551;SDS011;15752;49.560;8.708;2023-02-12T03:21:11;29.13;;;19.60;;
28551;SDS011;15752;49.560;8.708;2023-02-12T03:23:45;27.53;;;19.47;;
28551;SDS011;15752;49.560;8.708;2023-02-12T03:26:20;28.87;;;18.73;;
28551;SDS011;15752;49.560;8.708;2023-02-12T03:28:53;28.77;;;19.60;;
28551;SDS011;15752;49.560;8.708;2023-02-12T03:31:25;27.40;;;19.23;;
28551;SDS011;15752;49.560;8.708;2023-02-12T03:34:04;33.67;;;20.33;;
28551;SDS011;15752;49.560;8.708;2023-02-12T03:36:40;29.07;;;19.60;;
28551;SDS011;15752;49.560;8.708;2023-02-12T03:39:19;29.03;;;19.90;;
28551;SDS011;15752;49.560;8.708;2023-02-12T03:41:58;27.87;;;19.43;;
28551;SDS011;15752;49.560;8.708;2023-02-12T03:44:39;29.47;;;18.87;;
28551;SDS011;15752;49.560;8.708;2023-02-12T03:47:18;28.77;;;19.33;;
28551;SDS011;15752;49.560;8.708;2023-02-12T03:49:54;28.07;;;19.27;;
28551;SDS011;15752;49.560;8.708;2023-02-12T03:52:30;29.43;;;19.63;;
28551;SDS011;15752;49.560;8.708;2023-02-12T03:54:58;27.50;;;18.43;;
28551;SDS011;15752;49.560;8.708;2023-02-12T03:57:28;26.07;;;18.60;;
28551;SDS011;15752;49.560;8.708;2023-02-12T04:00:01;27.80;;;18.60;;
28551;SDS011;15752;49.560;8.708;2023-02-12T04:02:39;28.53;;;18.87;;
28551;SDS011;15752;49.560;8.708;2023-02-12T04:05:16;26.53;;;18.80;;
28551;SDS011;15752;49.560;8.708;2023-02-12T04:07:47;27.43;;;18.83;;
28551;SDS011;15752;49.560;8.708;2023-02-12T04:10:17;27.90;;;19.60;;
28551;SDS011;15752;49.560;8.708;2023-02-12T04:12:56;29.43;;;19.70;;
28551;SDS011;15752;49.560;8.708;2023-02-12T04:15:47;27.93;;;18.80;;
28551;SDS011;15752;49.560;8.708;2023-02-12T04:18:36;24.73;;;17.77;;
28551;SDS011;15752;49.560;8.708;2023-02-12T04:21:12;31.57;;;19.80;;
28551;SDS011;15752;49.560;8.708;2023-02-12T04:23:53;27.33;;;17.97;;
28551;SDS011;15752;49.560;8.708;2023-02-12T04:26:33;23.50;;;18.07;;
28551;SDS011;15752;49.560;8.708;2023-02-12T04:29:13;26.60;;;17.93;;
28551;SDS011;15752;49.560;8.708;2023-02-12T04:31:49;26.60;;;17.80;;
28551;SDS011;15752;49.560;8.708;2023-02-12T04:34:24;25.27;;;17.77;;
28551;SDS011;15752;49.560;8.708;2023-02-12T04:37:01;27.07;;;18.73;;
28551;SDS011;15752;49.560;8.708;2023-02-12T04:39:36;26.40;;;18.23;;
28551;SDS011;15752;49.560;8.708;2023-02-12T04:42:06;29.63;;;18.73;;
28551;SDS011;15752;49.560;8.708;2023-02-12T04:44:36;25.97;;;18.80;;
28551;SDS011;15752;49.560;8.708;2023-02-12T04:47:10;24.33;;;18.20;;
28551;SDS011;15752;49.560;8.708;2023-02-12T04:49:39;28.73;;;18.33;;
28551;SDS011;15752;49.560;8.708;2023-02-12T04:52:09;28.23;;;18.77;;
28551;SDS011;15752;49.560;8.708;2023-02-12T04:54:37;28.80;;;18.73;;
28551;SDS011;15752;49.560;8.708;2023-02-12T04:57:06;27.57;;;18.57;;
28551;SDS011;15752;49.560;8.708;2023-02-12T04:59:35;25.70;;;17.87;;
28551;SDS011;15752;49.560;8.708;2023-02-12T05:02:04;27.37;;;18.43;;
28551;SDS011;15752;49.560;8.708;2023-02-12T05:04:32;27.07;;;17.40;;
28551;SDS011;15752;49.560;8.708;2023-02-12T05:07:00;26.20;;;18.00;;
28551;SDS011;15752;49.560;8.708;2023-02-12T05:09:30;28.13;;;18.43;;
28551;SDS011;15752;49.560;8.708;2023-02-12T05:11:59;24.83;;;17.40;;
28551;SDS011;15752;49.560;8.708;2023-02-12T05:14:28;25.17;;;17.50;;
28551;SDS011;15752;49.560;8.708;2023-02-12T05:16:56;27.53;;;18.73;;
28551;SDS011;15752;49.560;8.708;2023-02-12T05:19:24;23.37;;;17.73;;
28551;SDS011;15752;49.560;8.708;2023-02-12T05:21:53;22.77;;;16.50;;
28551;SDS011;15752;49.560;8.708;2023-02-12T05:24:21;23.37;;;17.33;;
28551;SDS011;15752;49.560;8.708;2023-02-12T05:26:51;24.67;;;17.47;;
28551;SDS011;15752;49.560;8.708;2023-02-12T05:29:20;28.30;;;17.87;;
28551;SDS011;15752;49.560;8.708;2023-02-12T05:31:48;22.07;;;15.43;;
28551;SDS011;15752;49.560;8.708;2023-02-12T05:34:17;25.80;;;17.07;;
28551;SDS011;15752;49.560;8.708;2023-02-12T05:36:45;24.20;;;17.10;;
28551;SDS011;15752;49.560;8.708;2023-02-12T05:39:14;22.07;;;16.30;;
28551;SDS011;15752;49.560;8.708;2023-02-12T05:41:43;25.17;;;16.40;;
28551;SDS011;15752;49.560;8.708;2023-02-12T05:44:13;21.10;;;14.93;;
28551;SDS011;15752;49.560;8.708;2023-02-12T05:46:41;22.93;;;15.50;;
28551;SDS011;15752;49.560;8.708;2023-02-12T05:49:10;21.93;;;15.70;;
28551;SDS011;15752;49.560;8.708;2023-02-12T05:51:39;21.90;;;15.03;;
28551;SDS011;15752;49.560;8.708;2023-02-12T05:54:08;20.47;;;15.50;;
28551;SDS011;15752;49.560;8.708;2023-02-12T05:56:40;21.00;;;13.90;;
28551;SDS011;15752;49.560;8.708;2023-02-12T05:59:13;20.30;;;14.93;;
28551;SDS011;15752;49.560;8.708;2023-02-12T06:01:45;19.67;;;14.37;;
28551;SDS011;15752;49.560;8.708;2023-02-12T06:04:16;20.80;;;15.07;;
28551;SDS011;15752;49.560;8.708;2023-02-12T06:06:49;18.40;;;13.57;;
28551;SDS011;15752;49.560;8.708;2023-02-12T06:09:18;19.10;;;13.73;;
28551;SDS011;15752;49.560;8.708;2023-02-12T06:11:47;21.40;;;14.37;;
28551;SDS011;15752;49.560;8.708;2023-02-12T06:14:17;19.00;;;13.90;;
28551;SDS011;15752;49.560;8.708;2023-02-12T06:16:48;20.60;;;14.07;;
28551;SDS011;15752;49.560;8.708;2023-02-12T06:19:18;17.77;;;13.53;;
28551;SDS011;15752;49.560;8.708;2023-02-12T06:21:47;20.37;;;14.20;;
28551;SDS011;15752;49.560;8.708;2023-02-12T06:24:16;18.30;;;13.10;;
28551;SDS011;15752;49.560;8.708;2023-02-12T06:26:44;22.27;;;14.63;;
28551;SDS011;15752;49.560;8.708;2023-02-12T06:29:17;17.70;;;13.90;;
28551;SDS011;15752;49.560;8.708;2023-02-12T06:31:46;21.37;;;14.53;;
28551;SDS011;15752;49.560;8.708;2023-02-12T06:34:15;17.83;;;13.10;;
28551;SDS011;15752;49.560;8.708;2023-02-12T06:36:45;20.57;;;14.40;;
28551;SDS011;15752;49.560;8.708;2023-02-12T06:39:14;18.00;;;14.13;;
28551;SDS011;15752;49.560;8.708;2023-02-12T06:41:43;19.97;;;13.40;;
28551;SDS011;15752;49.560;8.708;2023-02-12T06:44:12;20.97;;;14.37;;
28551;SDS011;15752;49.560;8.708;2023-02-12T06:46:41;17.77;;;13.87;;
28551;SDS011;15752;49.560;8.708;2023-02-12T06:49:10;19.03;;;14.07;;
28551;SDS011;15752;49.560;8.708;2023-02-12T06:51:39;21.23;;;14.70;;
28551;SDS011;15752;49.560;8.708;2023-02-12T06:54:11;20.20;;;14.37;;
28551;SDS011;15752;49.560;8.708;2023-02-12T06:56:41;20.10;;;13.53;;
28551;SDS011;15752;49.560;8.708;2023-02-12T06:59:11;18.33;;;13.83;;
28551;SDS011;15752;49.560;8.708;2023-02-12T07:01:43;19.40;;;13.83;;
28551;SDS011;15752;49.560;8.708;2023-02-12T07:04:11;21.47;;;13.77;;
28551;SDS011;15752;49.560;8.708;2023-02-12T07:06:40;21.00;;;14.67;;
28551;SDS011;15752;49.560;8.708;2023-02-12T07:09:08;22.37;;;14.27;;
28551;SDS011;15752;49.560;8.708;2023-02-12T07:11:37;20.30;;;14.00;;
28551;SDS011;15752;49.560;8.708;2023-02-12T07:14:06;22.53;;;15.20;;
28551;SDS011;15752;49.560;8.708;2023-02-12T07:16:34;21.17;;;14.43;;
28551;SDS011;15752;49.560;8.708;2023-02-12T07:19:04;20.87;;;14.53;;
28551;SDS011;15752;49.560;8.708;2023-02-12T07:21:32;22.83;;;15.27;;
28551;SDS011;15752;49.560;8.708;2023-02-12T07:24:01;22.83;;;15.30;;
28551;SDS011;15752;49.560;8.708;2023-02-12T07:26:30;21.10;;;14.67;;
28551;SDS011;15752;49.560;8.708;2023-02-12T07:28:58;22.87;;;15.93;;
28551;SDS011;15752;49.560;8.708;2023-02-12T07:31:26;23.77;;;16.23;;
28551;SDS011;15752;49.560;8.708;2023-02-12T07:33:55;21.93;;;15.60;;
28551;SDS011;15752;49.560;8.708;2023-02-12T07:36:28;26.23;;;17.90;;
28551;SDS011;15752;49.560;8.708;2023-02-12T07:38:59;30.93;;;20.63;;
28551;SDS011;15752;49.560;8.708;2023-02-12T07:41:28;28.93;;;19.83;;
28551;SDS011;15752;49.560;8.708;2023-02-12T07:43:59;28.30;;;19.50;;
28551;SDS011;15752;49.560;8.708;2023-02-12T07:46:33;29.73;;;20.83;;
28551;SDS011;15752;49.560;8.708;2023-02-12T07:49:04;26.43;;;19.13;;
28551;SDS011;15752;49.560;8.708;2023-02-12T07:51:37;30.03;;;20.73;;
28551;SDS011;15752;49.560;8.708;2023-02-12T07:54:05;32.43;;;21.63;;
28551;SDS011;15752;49.560;8.708;2023-02-12T07:56:35;33.70;;;21.87;;
28551;SDS011;15752;49.560;8.708;2023-02-12T07:59:06;35.40;;;21.07;;
28551;SDS011;15752;49.560;8.708;2023-02-12T08:01:38;32.63;;;22.07;;
28551;SDS011;15752;49.560;8.708;2023-02-12T08:04:09;31.33;;;20.40;;
28551;SDS011;15752;49.560;8.708;2023-02-12T08:06:42;30.70;;;20.67;;
28551;SDS011;15752;49.560;8.708;2023-02-12T08:09:13;29.97;;;20.47;;
28551;SDS011;15752;49.560;8.708;2023-02-12T08:11:44;38.30;;;22.43;;
28551;SDS011;15752;49.560;8.708;2023-02-12T08:14:13;35.53;;;24.30;;
28551;SDS011;15752;49.560;8.708;2023-02-12T08:16:43;33.03;;;22.10;;
28551;SDS011;15752;49.560;8.708;2023-02-12T08:19:14;35.47;;;23.60;;
28551;SDS011;15752;49.560;8.708;2023-02-12T08:21:49;45.33;;;27.87;;
28551;SDS011;15752;49.560;8.708;2023-02-12T08:24:20;35.80;;;24.67;;
28551;SDS011;15752;49.560;8.708;2023-02-12T08:26:49;32.73;;;22.17;;
28551;SDS011;15752;49.560;8.708;2023-02-12T08:29:19;29.90;;;22.30;;
28551;SDS011;15752;49.560;8.708;2023-02-12T08:31:50;34.90;;;23.00;;
28551;SDS011;15752;49.560;8.708;2023-02-12T08:34:27;34.10;;;22.50;;
28551;SDS011;15752;49.560;8.708;2023-02-12T08:37:00;33.67;;;23.07;;
28551;SDS011;15752;49.560;8.708;2023-02-12T08:39:28;31.30;;;22.00;;
28551;SDS011;15752;49.560;8.708;2023-02-12T08:41:58;32.33;;;23.60;;
28551;SDS011;15752;49.560;8.708;2023-02-12T08:44:27;32.93;;;23.20;;
28551;SDS011;15752;49.560;8.708;2023-02-12T08:46:56;34.47;;;24.97;;
28551;SDS011;15752;49.560;8.708;2023-02-12T08:49:25;32.73;;;24.70;;
28551;SDS011;15752;49.560;8.708;2023-02-12T08:51:55;30.17;;;21.80;;
28551;SDS011;15752;49.560;8.708;2023-02-12T08:54:26;33.83;;;24.40;;
28551;SDS011;15752;49.560;8.708;2023-02-12T08:56:57;34.27;;;22.40;;
28551;SDS011;15752;49.560;8.708;2023-02-12T08:59:27;28.87;;;20.90;;
28551;SDS011;15752;49.560;8.708;2023-02-12T09:01:56;30.60;;;22.00;;
28551;SDS011;15752;49.560;8.708;2023-02-12T09:04:26;30.93;;;22.63;;
28551;SDS011;15752;49.560;8.708;2023-02-12T09:06:55;30.80;;;22.07;;
28551;SDS011;15752;49.560;8.708;2023-02-12T09:09:24;35.40;;;24.30;;
28551;SDS011;15752;49.560;8.708;2023-02-12T09:11:54;33.10;;;23.27;;
28551;SDS011;15752;49.560;8.708;2023-02-12T09:14:22;37.80;;;27.30;;
28551;SDS011;15752;49.560;8.708;2023-02-12T09:16:53;34.47;;;23.70;;
28551;SDS011;15752;49.560;8.708;2023-02-12T09:19:23;31.30;;;21.57;;
28551;SDS011;15752;49.560;8.708;2023-02-12T09:21:53;30.53;;;21.43;;
28551;SDS011;15752;49.560;8.708;2023-02-12T09:24:22;31.83;;;22.30;;
28551;SDS011;15752;49.560;8.708;2023-02-12T09:26:54;32.07;;;21.77;;
28551;SDS011;15752;49.560;8.708;2023-02-12T09:29:23;30.27;;;20.73;;
28551;SDS011;15752;49.560;8.708;2023-02-12T09:31:51;31.70;;;21.93;;
28551;SDS011;15752;49.560;8.708;2023-02-12T09:34:20;31.20;;;20.13;;
28551;SDS011;15752;49.560;8.708;2023-02-12T09:36:48;27.90;;;20.97;;
28551;SDS011;15752;49.560;8.708;2023-02-12T09:39:17;27.97;;;20.13;;
28551;SDS011;15752;49.560;8.708;2023-02-12T09:41:53;32.10;;;21.57;;
28551;SDS011;15752;49.560;8.708;2023-02-12T09:44:54;29.47;;;20.03;;
28551;SDS011;15752;49.560;8.708;2023-02-12T09:47:35;32.23;;;21.37;;
28551;SDS011;15752;49.560;8.708;2023-02-12T09:50:14;29.43;;;19.73;;
28551;SDS011;15752;49.560;8.708;2023-02-12T09:52:55;28.10;;;19.50;;
28551;SDS011;15752;49.560;8.708;2023-02-12T09:55:25;30.10;;;19.67;;
28551;SDS011;15752;49.560;8.708;2023-02-12T09:57:59;29.27;;;18.37;;
28551;SDS011;15752;49.560;8.708;2023-02-12T10:00:30;30.87;;;19.00;;
28551;SDS011;15752;49.560;8.708;2023-02-12T10:03:00;29.63;;;20.20;;
28551;SDS011;15752;49.560;8.708;2023-02-12T10:05:32;30.47;;;19.67;;
28551;SDS011;15752;49.560;8.708;2023-02-12T10:08:20;27.77;;;18.47;;
28551;SDS011;15752;49.560;8.708;2023-02-12T10:11:07;25.40;;;17.63;;
28551;SDS011;15752;49.560;8.708;2023-02-12T10:14:00;28.23;;;18.57;;
28551;SDS011;15752;49.560;8.708;2023-02-12T10:16:42;29.70;;;19.33;;
28551;SDS011;15752;49.560;8.708;2023-02-12T10:19:22;27.93;;;19.73;;
28551;SDS011;15752;49.560;8.708;2023-02-12T10:22:12;27.40;;;18.70;;
28551;SDS011;15752;49.560;8.708;2023-02-12T10:24:48;30.33;;;19.87;;
28551;SDS011;15752;49.560;8.708;2023-02-12T10:27:37;28.53;;;19.40;;
28551;SDS011;15752;49.560;8.708;2023-02-12T10:30:15;29.60;;;21.13;;
28551;SDS011;15752;49.560;8.708;2023-02-12T10:32:49;31.10;;;21.17;;
28551;SDS011;15752;49.560;8.708;2023-02-12T10:35:21;33.20;;;20.47;;
28551;SDS011;15752;49.560;8.708;2023-02-12T10:37:54;33.53;;;21.00;;
28551;SDS011;15752;49.560;8.708;2023-02-12T10:40:26;31.80;;;21.30;;
28551;SDS011;15752;49.560;8.708;2023-02-12T10:42:59;32.33;;;21.70;;
28551;SDS011;15752;49.560;8.708;2023-02-12T10:45:31;31.93;;;20.93;;
28551;SDS011;15752;49.560;8.708;2023-02-12T10:48:03;32.40;;;20.97;;
28551;SDS011;15752;49.560;8.708;2023-02-12T10:50:38;30.53;;;20.57;;
28551;SDS011;15752;49.560;8.708;2023-02-12T10:53:23;31.37;;;20.50;;
28551;SDS011;15752;49.560;8.708;2023-02-12T10:56:03;33.07;;;21.47;;
28551;SDS011;15752;49.560;8.708;2023-02-12T10:58:39;31.53;;;21.13;;
28551;SDS011;15752;49.560;8.708;2023-02-12T11:01:19;35.43;;;22.67;;
28551;SDS011;15752;49.560;8.708;2023-02-12T11:03:51;39.10;;;24.30;;
28551;SDS011;15752;49.560;8.708;2023-02-12T11:06:21;35.67;;;23.87;;
28551;SDS011;15752;49.560;8.708;2023-02-12T11:08:52;36.00;;;23.00;;
28551;SDS011;15752;49.560;8.708;2023-02-12T11:11:21;39.20;;;23.33;;
28551;SDS011;15752;49.560;8.708;2023-02-12T11:13:53;31.90;;;21.00;;
28551;SDS011;15752;49.560;8.708;2023-02-12T11:16:30;35.93;;;21.93;;
28551;SDS011;15752;49.560;8.708;2023-02-12T11:19:02;35.10;;;22.20;;
28551;SDS011;15752;49.560;8.708;2023-02-12T11:21:32;37.67;;;22.43;;
28551;SDS011;15752;49.560;8.708;2023-02-12T11:24:21;36.57;;;22.20;;
28551;SDS011;15752;49.560;8.708;2023-02-12T11:27:10;32.50;;;21.97;;
28551;SDS011;15752;49.560;8.708;2023-02-12T11:30:02;33.70;;;20.73;;
28551;SDS011;15752;49.560;8.708;2023-02-12T11:32:42;25.97;;;16.47;;
28551;SDS011;15752;49.560;8.708;2023-02-12T11:35:12;29.83;;;18.50;;
28551;SDS011;15752;49.560;8.708;2023-02-12T11:37:50;28.93;;;17.83;;
28551;SDS011;15752;49.560;8.708;2023-02-12T11:40:21;28.03;;;17.43;;
28551;SDS011;15752;49.560;8.708;2023-02-12T11:42:53;26.13;;;16.57;;
28551;SDS011;15752;49.560;8.708;2023-02-12T11:45:26;20.20;;;13.30;;
28551;SDS011;15752;49.560;8.708;2023-02-12T11:48:00;17.40;;;12.07;;
28551;SDS011;15752;49.560;8.708;2023-02-12T11:50:29;26.83;;;15.37;;
28551;SDS011;15752;49.560;8.708;2023-02-12T11:52:59;21.57;;;13.87;;
28551;SDS011;15752;49.560;8.708;2023-02-12T11:55:32;22.23;;;13.40;;
28551;SDS011;15752;49.560;8.708;2023-02-12T11:58:03;19.93;;;13.20;;
28551;SDS011;15752;49.560;8.708;2023-02-12T12:00:42;23.47;;;15.20;;
28551;SDS011;15752;49.560;8.708;2023-02-12T12:03:20;20.13;;;13.83;;
28551;SDS011;15752;49.560;8.708;2023-02-12T12:05:54;20.93;;;13.70;;
28551;SDS011;15752;49.560;8.708;2023-02-12T12:08:30;34.00;;;24.07;;
28551;SDS011;15752;49.560;8.708;2023-02-12T12:11:08;23.27;;;17.00;;
28551;SDS011;15752;49.560;8.708;2023-02-12T12:13:43;9.33;;;7.17;;
28551;SDS011;15752;49.560;8.708;2023-02-12T12:16:18;5.87;;;4.47;;
28551;SDS011;15752;49.560;8.708;2023-02-12T12:19:15;6.23;;;4.37;;
28551;SDS011;15752;49.560;8.708;2023-02-12T12:22:08;15.83;;;8.47;;
28551;SDS011;15752;49.560;8.708;2023-02-12T12:24:46;8.37;;;5.23;;
28551;SDS011;15752;49.560;8.708;2023-02-12T12:27:21;6.87;;;5.20;;
28551;SDS011;15752;49.560;8.708;2023-02-12T12:30:15;7.20;;;4.43;;
28551;SDS011;15752;49.560;8.708;2023-02-12T12:32:49;6.27;;;4.50;;
28551;SDS011;15752;49.560;8.708;2023-02-12T12:35:24;7.83;;;6.37;;
28551;SDS011;15752;49.560;8.708;2023-02-12T12:38:04;7.30;;;5.50;;
28551;SDS011;15752;49.560;8.708;2023-02-12T12:40:49;4.33;;;3.53;;
28551;SDS011;15752;49.560;8.708;2023-02-12T12:43:33;5.23;;;4.00;;
28551;SDS011;15752;49.560;8.708;2023-02-12T12:46:22;5.23;;;3.63;;
28551;SDS011;15752;49.560;8.708;2023-02-12T12:49:17;4.03;;;3.50;;
28551;SDS011;15752;49.560;8.708;2023-02-12T12:55:18;4.63;;;3.27;;
28551;SDS011;15752;49.560;8.708;2023-02-12T12:58:12;4.63;;;3.47;;
28551;SDS011;15752;49.560;8.708;2023-02-12T13:00:57;4.73;;;3.40;;
28551;SDS011;15752;49.560;8.708;2023-02-12T13:03:57;4.27;;;3.10;;
28551;SDS011;15752;49.560;8.708;2023-02-12T13:06:51;4.83;;;3.37;;
28551;SDS011;15752;49.560;8.708;2023-02-12T13:09:35;5.73;;;4.80;;
28551;SDS011;15752;49.560;8.708;2023-02-12T13:12:37;9.90;;;5.93;;
28551;SDS011;15752;49.560;8.708;2023-02-12T13:15:25;7.97;;;5.73;;
28551;SDS011;15752;49.560;8.708;2023-02-12T13:18:03;6.23;;;4.53;;
28551;SDS011;15752;49.560;8.708;2023-02-12T13:20:49;6.10;;;4.17;;
28551;SDS011;15752;49.560;8.708;2023-02-12T13:23:24;6.07;;;4.13;;
28551;SDS011;15752;49.560;8.708;2023-02-12T13:26:06;5.63;;;3.80;;
28551;SDS011;15752;49.560;8.708;2023-02-12T13:28:43;5.03;;;3.47;;
28551;SDS011;15752;49.560;8.708;2023-02-12T13:31:18;5.00;;;3.80;;
28551;SDS011;15752;49.560;8.708;2023-02-12T13:34:00;5.23;;;4.30;;
28551;SDS011;15752;49.560;8.708;2023-02-12T13:36:32;5.87;;;3.97;;
28551;SDS011;15752;49.560;8.708;2023-02-12T13:39:04;4.30;;;3.20;;
28551;SDS011;15752;49.560;8.708;2023-02-12T13:41:43;4.03;;;3.03;;
28551;SDS011;15752;49.560;8.708;2023-02-12T13:44:24;3.87;;;3.40;;
28551;SDS011;15752;49.560;8.708;2023-02-12T13:47:01;4.77;;;2.97;;
28551;SDS011;15752;49.560;8.708;2023-02-12T13:49:40;3.47;;;2.13;;
28551;SDS011;15752;49.560;8.708;2023-02-12T13:52:18;4.77;;;2.70;;
28551;SDS011;15752;49.560;8.708;2023-02-12T13:55:02;6.60;;;4.77;;
28551;SDS011;15752;49.560;8.708;2023-02-12T14:01:12;5.40;;;3.73;;
28551;SDS011;15752;49.560;8.708;2023-02-12T14:04:15;5.43;;;4.10;;
28551;SDS011;15752;49.560;8.708;2023-02-12T14:06:59;7.23;;;4.23;;
28551;SDS011;15752;49.560;8.708;2023-02-12T14:09:33;5.20;;;4.07;;
28551;SDS011;15752;49.560;8.708;2023-02-12T14:12:06;5.47;;;4.57;;
28551;SDS011;15752;49.560;8.708;2023-02-12T14:14:39;5.73;;;4.50;;
28551;SDS011;15752;49.560;8.708;2023-02-12T14:17:38;5.00;;;4.50;;
28551;SDS011;15752;49.560;8.708;2023-02-12T14:20:22;7.20;;;4.90;;
28551;SDS011;15752;49.560;8.708;2023-02-12T14:22:55;5.97;;;4.83;;
28551;SDS011;15752;49.560;8.708;2023-02-12T14:25:36;5.17;;;4.20;;
28551;SDS011;15752;49.560;8.708;2023-02-12T14:37:15;11.77;;;8.67;;
28551;SDS011;15752;49.560;8.708;2023-02-12T14:43:23;17.27;;;10.67;;
28551;SDS011;15752;49.560;8.708;2023-02-12T14:45:57;17.23;;;11.40;;
28551;SDS011;15752;49.560;8.708;2023-02-12T14:49:02;16.93;;;10.47;;
28551;SDS011;15752;49.560;8.708;2023-02-12T14:51:32;16.47;;;10.47;;
28551;SDS011;15752;49.560;8.708;2023-02-12T14:54:10;16.63;;;10.93;;
28551;SDS011;15752;49.560;8.708;2023-02-12T14:56:45;16.57;;;10.30;;
28551;SDS011;15752;49.560;8.708;2023-02-12T14:59:17;17.30;;;10.70;;
28551;SDS011;15752;49.560;8.708;2023-02-12T15:01:49;15.53;;;10.80;;
28551;SDS011;15752;49.560;8.708;2023-02-12T15:04:23;21.17;;;12.43;;
28551;SDS011;15752;49.560;8.708;2023-02-12T15:06:55;18.50;;;12.30;;
28551;SDS011;15752;49.560;8.708;2023-02-12T15:09:28;20.10;;;13.23;;
28551;SDS011;15752;49.560;8.708;2023-02-12T15:12:02;24.57;;;16.90;;
28551;SDS011;15752;49.560;8.708;2023-02-12T15:14:39;25.37;;;16.33;;
28551;SDS011;15752;49.560;8.708;2023-02-12T15:17:13;25.33;;;15.87;;
28551;SDS011;15752;49.560;8.708;2023-02-12T15:19:50;26.33;;;16.40;;
28551;SDS011;15752;49.560;8.708;2023-02-12T15:22:26;29.90;;;15.97;;
28551;SDS011;15752;49.560;8.708;2023-02-12T15:25:14;22.13;;;14.03;;
28551;SDS011;15752;49.560;8.708;2023-02-12T15:27:46;19.90;;;12.60;;
28551;SDS011;15752;49.560;8.708;2023-02-12T15:30:17;19.27;;;12.87;;
28551;SDS011;15752;49.560;8.708;2023-02-12T15:32:52;19.10;;;13.07;;